Time;durP1;ratioP1;P1;durP2;ratioP2;P2;SDS_P1;SDS_P2;PMS_P1;PMS_P2;Temp;Humidity;BMP_temperature;BMP_pressure;BME280_temperature;BME280_humidity;BME280_pressure;Samples;Min_cycle;Max_cycle;Signal;HPM_P1;HPM_P2
2022/06/03 00:03:07;;;;;;;2.40;1.77;;;18.90;61.00;;;;;;5101923;28;20071;-73
2022/06/03 00:05:50;;;;;;;4.68;2.13;;;18.70;60.20;;;;;;5107234;28;20134;-72
2022/06/03 00:08:29;;;;;;;2.03;1.50;;;18.70;59.90;;;;;;5096473;28;20055;-72
2022/06/03 00:11:07;;;;;;;1.48;1.38;;;18.80;55.60;;;;;;5088776;28;20089;-72
2022/06/03 00:13:49;;;;;;;2.22;1.52;;;18.50;61.10;;;;;;5089009;28;20083;-72
2022/06/03 00:16:22;;;;;;;1.90;1.35;;;18.80;55.60;;;;;;5089567;28;20401;-72
2022/06/03 00:19:23;;;;;;;2.30;1.45;;;18.90;60.30;;;;;;5088825;28;20139;-72
2022/06/03 00:22:14;;;;;;;2.45;1.30;;;17.70;59.50;;;;;;5036082;28;20155;-72
2022/06/03 00:24:50;;;;;;;1.80;1.40;;;18.90;59.30;;;;;;5088981;28;20763;-72
2022/06/03 00:27:30;;;;;;;2.40;1.60;;;18.70;60.10;;;;;;5104253;28;20047;-72
2022/06/03 00:30:04;;;;;;;2.72;1.38;;;18.70;55.60;;;;;;5109617;28;20589;-72
2022/06/03 00:33:09;;;;;;;2.50;1.40;;;18.80;55.70;;;;;;5108918;28;20134;-72
2022/06/03 00:35:45;;;;;;;1.83;1.20;;;19.90;61.00;;;;;;5107729;28;20440;-71
2022/06/03 00:38:22;;;;;;;2.00;1.48;;;18.80;55.70;;;;;;5089121;28;20083;-71
2022/06/03 00:40:58;;;;;;;2.10;1.50;;;17.90;59.10;;;;;;5088493;28;20139;-72
2022/06/03 00:43:42;;;;;;;1.70;1.35;;;18.70;55.70;;;;;;5107926;28;20412;-73
2022/06/03 00:46:22;;;;;;;1.70;1.40;;;18.80;61.10;;;;;;5108263;28;20104;-73
2022/06/03 00:48:56;;;;;;;2.88;1.30;;;18.70;55.70;;;;;;5109294;28;20150;-72
2022/06/03 00:51:45;;;;;;;1.52;1.33;;;18.70;55.70;;;;;;5108776;28;20130;-73
2022/06/03 00:54:43;;;;;;;1.55;1.40;;;18.70;60.20;;;;;;5108893;28;20047;-73
2022/06/03 00:57:22;;;;;;;1.90;1.40;;;18.80;60.80;;;;;;5094501;28;20052;-73
2022/06/03 01:00:06;;;;;;;2.47;1.58;;;18.70;60.60;;;;;;5088670;28;20697;-73
2022/06/03 01:02:52;;;;;;;2.00;1.47;;;18.60;55.70;;;;;;5063753;28;1062485;-72
2022/06/03 01:05:25;;;;;;;1.48;1.20;;;17.50;60.70;;;;;;5109601;28;20083;-72
2022/06/03 01:07:59;;;;;;;1.85;1.40;;;18.00;60.70;;;;;;5089666;28;20139;-72
2022/06/03 01:10:54;;;;;;;1.98;1.48;;;19.30;60.90;;;;;;5089314;28;20076;-72
2022/06/03 01:13:53;;;;;;;1.92;1.40;;;19.00;61.30;;;;;;5089176;28;20134;-73
2022/06/03 01:16:27;;;;;;;2.78;1.48;;;18.40;60.20;;;;;;5080333;28;20056;-72
2022/06/03 01:19:00;;;;;;;1.90;1.40;;;18.40;59.90;;;;;;5088871;28;20135;-73
2022/06/03 01:21:40;;;;;;;1.90;1.50;;;18.20;61.10;;;;;;5100971;28;20051;-72
2022/06/03 01:24:23;;;;;;;2.08;1.50;;;18.50;60.30;;;;;;5108268;28;20093;-72
2022/06/03 01:27:26;;;;;;;2.15;1.40;;;18.50;55.70;;;;;;5108781;28;20055;-73
2022/06/03 01:30:06;;;;;;;1.55;1.40;;;18.50;61.40;;;;;;5109520;28;20139;-72
2022/06/03 01:32:47;;;;;;;2.10;1.40;;;18.20;60.60;;;;;;5109086;28;20047;-72
2022/06/03 01:35:32;;;;;;;3.10;1.55;;;18.50;55.80;;;;;;5109193;28;20564;-71
2022/06/03 01:37:59;;;;;;;;;;;18.50;55.70;;;;;;5109501;28;20618;-73
2022/06/03 01:40:49;;;;;;;2.08;1.48;;;19.40;61.10;;;;;;5109209;28;19920;-72
2022/06/03 01:43:37;;;;;;;3.13;1.55;;;17.50;59.90;;;;;;5108761;28;20051;-73
2022/06/03 01:46:13;;;;;;;2.00;1.48;;;17.90;60.40;;;;;;5108511;28;20075;-72
2022/06/03 01:48:59;;;;;;;1.83;1.40;;;18.50;61.10;;;;;;5108703;28;20058;-73
2022/06/03 01:51:42;;;;;;;2.50;1.50;;;18.40;55.70;;;;;;5109069;28;20047;-73
2022/06/03 01:54:49;;;;;;;1.55;1.35;;;18.40;60.70;;;;;;5108401;28;20087;-71
2022/06/03 01:57:37;;;;;;;1.77;1.30;;;18.30;60.10;;;;;;5095185;28;20063;-73
2022/06/03 02:00:15;;;;;;;3.65;2.03;;;18.50;60.60;;;;;;5087836;28;20058;-72
2022/06/03 02:03:08;;;;;;;1.63;1.52;;;18.20;60.30;;;;;;5087665;28;20044;-72
2022/06/03 02:06:39;;;;;;;2.30;1.50;;;18.30;60.80;;;;;;5089450;28;20511;-72
2022/06/03 02:09:26;;;;;;;2.20;1.52;;;17.50;60.50;;;;;;5088461;28;20494;-73
2022/06/03 02:12:11;;;;;;;1.70;1.50;;;19.40;61.70;;;;;;5087720;28;20040;-72
2022/06/03 02:15:22;;;;;;;1.67;1.30;;;18.30;59.70;;;;;;5088384;28;20135;-72
2022/06/03 02:18:25;;;;;;;1.50;1.27;;;18.30;55.70;;;;;;5108446;28;20588;-72
2022/06/03 02:21:16;;;;;;;1.50;1.38;;;18.30;60.10;;;;;;5107942;28;20417;-72
2022/06/03 02:24:11;;;;;;;1.70;1.30;;;18.30;60.40;;;;;;5108479;28;20063;-72
2022/06/03 02:26:42;;;;;;;;;;;18.30;55.80;;;;;;5091174;28;20133;-72
2022/06/03 02:32:35;;;;;;;1.83;1.42;;;18.30;60.60;;;;;;5087761;28;20713;-73
2022/06/03 02:35:18;;;;;;;2.03;1.33;;;17.00;60.30;;;;;;5090805;28;20056;-72
2022/06/03 02:38:18;;;;;;;3.05;1.50;;;17.60;61.50;;;;;;5107821;28;20070;-73
2022/06/03 02:41:26;;;;;;;2.58;1.38;;;18.30;60.60;;;;;;5087342;28;20134;-72
2022/06/03 02:44:23;;;;;;;1.83;1.40;;;18.40;60.60;;;;;;5087607;28;20056;-72
2022/06/03 02:47:41;;;;;;;2.17;1.50;;;18.20;55.80;;;;;;5066779;28;20159;-72
2022/06/03 02:50:19;;;;;;;1.60;1.48;;;17.80;60.90;;;;;;5087769;28;20483;-71
2022/06/03 02:53:05;;;;;;;2.47;1.50;;;18.00;60.00;;;;;;5087460;28;20483;-71
2022/06/03 02:55:46;;;;;;;2.28;1.60;;;18.40;60.00;;;;;;5094453;28;20154;-72
2022/06/03 02:58:52;;;;;;;2.40;1.50;;;18.10;60.00;;;;;;5108148;28;20134;-73
2022/06/03 03:01:39;;;;;;;2.47;1.77;;;18.80;60.70;;;;;;5043170;28;20055;-73
2022/06/03 03:04:16;;;;;;;2.22;1.40;;;18.30;60.60;;;;;;5107807;28;20158;-73
2022/06/03 03:07:12;;;;;;;2.42;1.60;;;18.00;61.20;;;;;;5106953;28;20147;-73
2022/06/03 03:09:58;;;;;;;2.05;1.50;;;17.80;59.80;;;;;;5103905;28;20549;-73
2022/06/03 03:12:55;;;;;;;2.65;1.58;;;17.80;60.10;;;;;;5107249;28;20074;-72
2022/06/03 03:15:39;;;;;;;1.77;1.60;;;18.10;55.80;;;;;;5101905;28;20683;-73
2022/06/03 03:18:40;;;;;;;1.75;1.33;;;18.10;55.90;;;;;;5102812;28;20106;-72
2022/06/03 03:21:28;;;;;;;3.05;1.60;;;18.10;55.80;;;;;;5107825;28;20521;-72
2022/06/03 03:24:20;;;;;;;2.83;1.58;;;18.00;60.50;;;;;;5107559;28;20052;-72
2022/06/03 03:26:54;;;;;;;1.58;1.48;;;18.10;55.80;;;;;;5108032;28;20054;-73
2022/06/03 03:29:34;;;;;;;1.65;1.50;;;18.10;60.40;;;;;;5107978;28;20135;-73
2022/06/03 03:32:19;;;;;;;1.83;1.50;;;18.20;61.30;;;;;;5107673;28;20047;-73
2022/06/03 03:35:14;;;;;;;1.63;1.50;;;17.10;59.40;;;;;;5107203;28;20617;-72
2022/06/03 03:38:14;;;;;;;1.50;1.40;;;17.40;60.50;;;;;;5087388;28;20126;-72
2022/06/03 03:40:58;;;;;;;2.00;1.50;;;18.00;55.80;;;;;;5087484;28;20130;-71
2022/06/03 03:44:00;;;;;;;2.10;1.60;;;18.10;60.90;;;;;;5106107;28;20130;-73
2022/06/03 03:47:00;;;;;;;1.45;1.30;;;18.90;62.60;;;;;;5052303;28;20566;-72
2022/06/03 03:50:07;;;;;;;2.00;1.40;;;18.00;55.90;;;;;;5082413;28;20304;-71
2022/06/03 03:53:00;;;;;;;1.92;1.50;;;18.00;60.40;;;;;;5090432;28;20046;-72
2022/06/03 03:56:01;;;;;;;1.90;1.33;;;17.30;60.70;;;;;;5096021;28;20054;-72
2022/06/03 03:58:59;;;;;;;2.90;1.60;;;18.00;60.50;;;;;;5111160;28;20051;-72
2022/06/03 04:01:58;;;;;;;2.33;1.65;;;17.00;60.00;;;;;;5106930;28;20127;-72
2022/06/03 04:04:54;;;;;;;1.58;1.40;;;18.00;60.80;;;;;;5090207;28;20143;-73
2022/06/03 04:07:23;;;;;;;;;;;17.90;55.80;;;;;;5091187;28;20062;-73
2022/06/03 04:10:00;;;;;;;2.20;1.40;;;16.90;60.70;;;;;;5090561;28;20012;-71
2022/06/03 04:12:52;;;;;;;1.52;1.30;;;17.90;56.00;;;;;;5090346;28;20115;-72
2022/06/03 04:16:05;;;;;;;1.73;1.40;;;17.50;60.20;;;;;;5090496;28;20070;-72
2022/06/03 04:18:52;;;;;;;1.50;1.40;;;17.80;60.50;;;;;;5090325;28;20238;-72
2022/06/03 04:21:55;;;;;;;1.58;1.45;;;17.90;61.20;;;;;;5090447;28;20091;-73
2022/06/03 04:24:40;;;;;;;2.40;1.70;;;18.10;60.20;;;;;;5090109;28;20494;-72
2022/06/03 04:27:32;;;;;;;1.77;1.50;;;17.80;60.30;;;;;;5089454;28;20135;-72
2022/06/03 04:30:27;;;;;;;1.58;1.40;;;17.90;59.80;;;;;;5076703;28;20062;-72
2022/06/03 04:33:32;;;;;;;2.72;1.48;;;17.90;60.30;;;;;;5082957;28;20570;-72
2022/06/03 04:36:35;;;;;;;2.00;1.17;;;17.70;60.80;;;;;;5098869;28;20043;-71
2022/06/03 04:39:50;;;;;;;1.50;1.30;;;17.00;60.00;;;;;;5110614;28;20549;-72
2022/06/03 04:42:59;;;;;;;1.60;1.35;;;17.80;61.00;;;;;;5110007;28;20047;-71
2022/06/03 04:46:14;;;;;;;1.70;1.40;;;17.90;55.70;;;;;;5067526;28;20129;-72
2022/06/03 04:49:26;;;;;;;1.92;1.40;;;18.60;61.00;;;;;;5089650;28;20159;-72
2022/06/03 04:52:22;;;;;;;1.70;1.60;;;17.90;55.70;;;;;;5089800;28;20135;-72
2022/06/03 04:55:17;;;;;;;1.90;1.50;;;17.20;59.30;;;;;;5034947;28;20160;-72
2022/06/03 04:58:09;;;;;;;1.30;1.20;;;17.90;55.20;;;;;;5105587;28;20135;-72
2022/06/03 05:00:50;;;;;;;1.50;1.40;;;17.90;55.80;;;;;;5089756;28;20054;-71
2022/06/03 05:03:55;;;;;;;1.70;1.50;;;18.40;60.60;;;;;;5103785;28;20126;-72
2022/06/03 05:06:58;;;;;;;1.45;1.30;;;18.60;62.30;;;;;;5096874;28;20050;-72
2022/06/03 05:10:02;;;;;;;2.17;1.40;;;18.00;60.70;;;;;;5103053;28;20470;-72
2022/06/03 05:12:53;;;;;;;2.15;1.50;;;18.00;60.20;;;;;;5104801;28;20093;-72
2022/06/03 05:15:57;;;;;;;1.77;1.40;;;18.00;55.80;;;;;;5089274;27;20142;-70
2022/06/03 05:18:43;;;;;;;2.33;1.52;;;18.00;55.70;;;;;;5117499;27;20463;-72
2022/06/03 05:21:35;;;;;;;1.85;1.40;;;17.80;60.40;;;;;;5104030;28;20055;-72
2022/06/03 05:24:35;;;;;;;1.50;1.30;;;17.20;60.00;;;;;;5108985;28;20165;-72
2022/06/03 05:27:34;;;;;;;1.75;1.40;;;17.90;60.10;;;;;;5108624;28;20139;-71
2022/06/03 05:30:24;;;;;;;1.63;1.38;;;18.00;60.00;;;;;;5110271;28;20047;-71
2022/06/03 05:33:35;;;;;;;1.90;1.50;;;18.10;60.50;;;;;;5109812;28;20123;-71
2022/06/03 05:36:44;;;;;;;1.45;1.35;;;18.50;61.40;;;;;;5100836;28;20062;-71
2022/06/03 05:39:29;;;;;;;2.53;1.30;;;17.10;60.40;;;;;;5088388;28;20131;-71
2022/06/03 05:42:24;;;;;;;1.88;1.38;;;18.00;61.40;;;;;;5102682;27;20053;-72
2022/06/03 05:44:55;;;;;;;1.90;1.40;;;18.90;60.30;;;;;;5129077;27;20150;-72
2022/06/03 05:47:25;;;;;;;2.45;1.50;;;18.10;60.90;;;;;;5091541;27;20074;-71
2022/06/03 05:49:53;;;;;;;2.58;1.67;;;19.00;60.80;;;;;;5088405;28;20052;-71
2022/06/03 05:52:37;;;;;;;3.08;1.55;;;18.70;60.40;;;;;;5088685;28;20044;-71
2022/06/03 05:55:17;;;;;;;3.38;1.60;;;18.80;59.40;;;;;;5087374;28;20158;-71
2022/06/03 05:57:50;;;;;;;2.28;1.67;;;19.00;59.50;;;;;;5107217;28;20134;-71
2022/06/03 06:00:43;;;;;;;3.20;1.35;;;19.60;60.00;;;;;;5108721;28;20130;-72
2022/06/03 06:03:20;;;;;;;1.95;1.48;;;19.40;59.00;;;;;;5108352;28;20055;-72
2022/06/03 06:05:50;;;;;;;1.90;1.58;;;19.40;54.10;;;;;;5108038;28;20126;-73
2022/06/03 06:08:25;;;;;;;2.15;1.63;;;19.50;53.70;;;;;;5109609;28;20557;-72
2022/06/03 06:10:57;;;;;;;1.77;1.52;;;19.80;58.50;;;;;;5109031;28;20055;-72
2022/06/03 06:13:37;;;;;;;3.10;1.75;;;19.70;53.20;;;;;;5108410;28;20043;-72
2022/06/03 06:16:07;;;;;;;3.10;1.50;;;20.50;58.00;;;;;;5101213;28;20105;-72
2022/06/03 06:18:42;;;;;;;1.75;1.50;;;21.00;58.90;;;;;;5087864;28;20052;-72
2022/06/03 06:21:28;;;;;;;1.90;1.60;;;20.00;58.40;;;;;;5088221;28;20083;-72
2022/06/03 06:24:01;;;;;;;1.75;1.40;;;20.40;57.50;;;;;;5087755;28;20558;-72
2022/06/03 06:26:36;;;;;;;1.55;1.40;;;20.30;58.10;;;;;;5098059;28;20119;-72
2022/06/03 06:29:13;;;;;;;2.00;1.42;;;20.80;57.30;;;;;;5108824;28;20090;-72
2022/06/03 06:31:55;;;;;;;1.83;1.40;;;20.70;57.30;;;;;;5108497;28;20131;-72
2022/06/03 06:34:29;;;;;;;3.03;1.33;;;20.90;57.70;;;;;;5107984;28;20075;-72
2022/06/03 06:37:36;;;;;;;2.17;1.20;;;20.90;57.80;;;;;;5096280;28;20059;-71
2022/06/03 06:40:13;;;;;;;5.10;1.40;;;22.00;58.60;;;;;;5095510;28;20131;-71
2022/06/03 06:42:51;;;;;;;2.25;1.40;;;21.60;57.70;;;;;;5097612;28;20048;-72
2022/06/03 06:45:27;;;;;;;2.85;1.27;;;20.10;56.00;;;;;;5107862;28;20052;-73
2022/06/03 06:47:58;;;;;;;1.92;1.20;;;21.30;58.00;;;;;;5087922;28;20044;-72
2022/06/03 06:50:26;;;;;;;2.70;1.40;;;21.20;51.30;;;;;;5087826;28;20078;-73
2022/06/03 06:52:58;;;;;;;3.47;1.20;;;21.30;55.70;;;;;;5087135;28;20504;-72
2022/06/03 06:55:33;;;;;;;7.75;1.52;;;21.50;56.90;;;;;;5086828;28;20048;-72
2022/06/03 06:58:01;;;;;;;1.95;1.27;;;21.50;51.30;;;;;;5087901;28;20142;-73
2022/06/03 07:00:29;;;;;;;2.17;1.20;;;21.70;55.80;;;;;;5087374;28;20136;-73
2022/06/03 07:02:57;;;;;;;1.17;1.08;;;21.70;56.80;;;;;;5102651;28;20048;-72
2022/06/03 07:05:28;;;;;;;2.10;1.33;;;21.80;51.30;;;;;;5106832;28;20143;-74
2022/06/03 07:07:59;;;;;;;2.10;1.10;;;22.00;57.40;;;;;;5107856;28;20083;-73
2022/06/03 07:10:28;;;;;;;1.65;1.00;;;21.90;51.20;;;;;;5108219;28;20139;-73
2022/06/03 07:12:59;;;;;;;2.08;1.20;;;22.00;55.70;;;;;;5107715;28;20055;-72
2022/06/03 07:15:26;;;;;;;1.95;1.25;;;22.30;55.90;;;;;;5107517;28;20130;-73
2022/06/03 07:20:51;;;;;;;2.63;1.13;;;22.20;51.20;;;;;;5087982;28;20139;-72
2022/06/03 07:23:22;;;;;;;3.83;1.20;;;22.20;56.20;;;;;;5094859;28;20063;-73
2022/06/03 07:25:56;;;;;;;1.75;1.13;;;22.40;55.90;;;;;;5106618;28;20047;-72
2022/06/03 07:28:30;;;;;;;2.42;1.10;;;22.30;51.00;;;;;;5111982;28;20047;-73
2022/06/03 07:31:01;;;;;;;1.93;1.20;;;22.50;56.10;;;;;;5111583;28;20130;-72
2022/06/03 07:33:46;;;;;;;3.33;1.17;;;21.20;55.70;;;;;;5111150;28;20104;-73
2022/06/03 07:36:15;;;;;;;1.88;1.20;;;23.20;56.00;;;;;;5111378;28;20051;-73
2022/06/03 07:38:45;;;;;;;1.90;1.17;;;21.60;55.00;;;;;;5098832;28;20147;-73
2022/06/03 07:41:16;;;;;;;3.30;1.40;;;22.50;50.80;;;;;;5092296;28;20135;-73
2022/06/03 07:43:45;;;;;;;1.70;1.30;;;23.60;56.20;;;;;;5131740;27;20043;-72
2022/06/03 07:46:13;;;;;;;4.00;1.48;;;22.60;50.90;;;;;;5131499;27;20559;-73
2022/06/03 07:48:40;;;;;;;2.63;1.42;;;22.70;55.70;;;;;;5115820;27;20138;-72
2022/06/03 07:51:09;;;;;;;1.85;1.20;;;22.80;56.10;;;;;;5111283;28;20062;-72
2022/06/03 07:53:42;;;;;;;2.17;1.30;;;22.60;51.40;;;;;;5111932;28;20100;-71
2022/06/03 07:56:08;;;;;;;2.70;1.45;;;22.80;55.50;;;;;;5102630;28;20086;-71
2022/06/03 07:58:37;;;;;;;2.95;1.40;;;22.70;50.80;;;;;;5116565;27;20123;-72
2022/06/03 08:01:05;;;;;;;2.08;1.10;;;22.60;50.60;;;;;;5111656;28;20071;-72
2022/06/03 08:03:36;;;;;;;3.90;1.20;;;22.70;54.30;;;;;;5110419;28;20135;-71
2022/06/03 08:06:04;;;;;;;2.15;1.20;;;22.80;50.50;;;;;;5110168;28;20055;-72
2022/06/03 08:11:24;;;;;;;3.28;1.40;;;22.80;50.40;;;;;;5111015;28;20052;-72
2022/06/03 08:13:53;;;;;;;3.95;1.40;;;22.80;50.30;;;;;;5110419;28;20051;-74
2022/06/03 08:16:31;;;;;;;1.95;1.45;;;22.70;55.30;;;;;;5101613;27;20101;-71
2022/06/03 08:19:00;;;;;;;1.42;1.20;;;23.00;54.30;;;;;;5094635;28;20502;-71
2022/06/03 08:21:28;;;;;;;3.63;1.20;;;22.90;55.00;;;;;;5090516;28;20105;-71
2022/06/03 08:23:55;;;;;;;4.32;1.73;;;22.90;54.50;;;;;;5089809;28;20135;-72
2022/06/03 08:26:24;;;;;;;3.42;1.50;;;22.90;50.20;;;;;;5098914;28;20142;-71
2022/06/03 08:28:54;;;;;;;4.05;1.38;;;22.70;53.90;;;;;;5110593;28;20075;-71
2022/06/03 08:31:23;;;;;;;2.45;1.45;;;22.70;54.50;;;;;;5108793;28;20082;-72
2022/06/03 08:33:51;;;;;;;2.75;1.40;;;24.00;50.80;;;;;;5098314;28;20054;-72
2022/06/03 08:36:19;;;;;;;2.58;1.30;;;22.90;50.20;;;;;;5110156;28;20073;-72
2022/06/03 08:38:47;;;;;;;3.90;1.30;;;22.90;50.20;;;;;;5095743;28;20062;-71
2022/06/03 08:41:26;;;;;;;2.33;1.52;;;22.40;53.70;;;;;;5091383;27;20135;-72
2022/06/03 08:44:07;;;;;;;3.42;1.17;;;23.30;54.40;;;;;;5130386;27;20051;-71
2022/06/03 08:46:36;;;;;;;4.32;1.65;;;22.80;50.40;;;;;;5130478;27;20057;-72
2022/06/03 08:49:04;;;;;;;3.70;1.55;;;23.00;54.80;;;;;;5121435;27;20082;-71
2022/06/03 08:51:35;;;;;;;1.80;1.30;;;22.00;54.10;;;;;;5131453;27;20130;-72
2022/06/03 08:54:04;;;;;;;2.10;1.30;;;22.90;50.40;;;;;;5126937;27;20126;-72
2022/06/03 08:56:32;;;;;;;2.90;1.38;;;23.00;55.30;;;;;;5108817;28;20159;-71
2022/06/03 08:59:02;;;;;;;2.13;1.38;;;22.80;50.40;;;;;;5094133;28;20079;-72
2022/06/03 09:01:32;;;;;;;4.50;1.48;;;22.90;50.50;;;;;;5092786;28;20135;-72
2022/06/03 09:04:05;;;;;;;2.67;1.20;;;22.90;50.50;;;;;;5109254;28;20059;-72
2022/06/03 09:06:40;;;;;;;2.53;1.10;;;22.80;50.40;;;;;;5109377;28;20131;-73
2022/06/03 09:09:11;;;;;;;2.63;1.38;;;22.90;50.50;;;;;;5100488;28;20135;-72
2022/06/03 09:11:40;;;;;;;2.17;1.20;;;22.60;54.80;;;;;;5089141;28;20052;-71
2022/06/03 09:14:11;;;;;;;3.50;1.50;;;23.00;54.50;;;;;;5088491;28;20052;-72
2022/06/03 09:16:40;;;;;;;1.67;1.23;;;23.00;55.30;;;;;;5089185;28;20479;-71
2022/06/03 09:19:09;;;;;;;2.55;1.75;;;22.70;55.30;;;;;;5104782;28;20386;-73
2022/06/03 09:21:41;;;;;;;2.40;1.40;;;22.70;54.40;;;;;;5108557;28;20147;-72
2022/06/03 09:24:10;;;;;;;1.40;1.20;;;22.90;50.50;;;;;;5110048;28;20043;-72
2022/06/03 09:26:38;;;;;;;2.65;1.30;;;22.90;51.10;;;;;;5110201;28;20048;-72
2022/06/03 09:29:05;;;;;;;1.60;1.30;;;22.90;55.20;;;;;;5093408;28;20089;-70
2022/06/03 09:31:35;;;;;;;2.85;1.30;;;23.40;54.70;;;;;;5088650;28;20060;-72
2022/06/03 09:34:02;;;;;;;2.58;1.67;;;22.90;55.60;;;;;;5088209;28;20044;-71
2022/06/03 09:36:28;;;;;;;1.27;1.10;;;22.90;54.50;;;;;;5088683;28;20569;-72
2022/06/03 09:38:58;;;;;;;2.45;1.23;;;22.80;54.40;;;;;;5102676;28;20484;-71
2022/06/03 09:41:25;;;;;;;3.67;1.77;;;22.80;50.50;;;;;;5110945;27;20244;-72
2022/06/03 09:43:53;;;;;;;7.50;3.33;;;22.80;50.40;;;;;;5129745;27;20130;-72
2022/06/03 09:46:20;;;;;;;5.65;2.30;;;22.80;50.50;;;;;;5123143;27;20090;-72
2022/06/03 09:48:49;;;;;;;6.55;2.78;;;22.70;54.40;;;;;;5103392;28;20500;-72
2022/06/03 09:51:19;;;;;;;11.07;4.85;;;22.40;55.20;;;;;;5105990;28;20057;-72
2022/06/03 09:53:45;;;;;;;9.15;3.65;;;22.80;54.40;;;;;;5108440;28;20044;-71
2022/06/03 09:56:19;;;;;;;5.53;2.90;;;22.80;50.70;;;;;;5107257;28;20162;-72
2022/06/03 09:58:46;;;;;;;6.35;2.70;;;22.80;50.60;;;;;;5108167;28;20055;-72
2022/06/03 10:01:12;;;;;;;6.75;2.70;;;22.80;50.70;;;;;;5107951;28;20142;-72
2022/06/03 10:03:40;;;;;;;6.93;3.50;;;22.60;54.60;;;;;;5109116;28;20061;-72
2022/06/03 10:06:42;;;;;;;6.30;2.88;;;22.70;50.60;;;;;;5106914;28;20530;-71
2022/06/03 10:14:23;;;;;;;6.10;2.47;;;22.70;49.80;;;;;;5087678;28;20063;-72
2022/06/03 10:16:50;;;;;;;5.13;2.08;;;22.60;53.50;;;;;;5092911;28;20052;-72
2022/06/03 10:19:16;;;;;;;5.13;2.45;;;21.60;53.10;;;;;;5109200;28;20433;-71
2022/06/03 10:21:51;;;;;;;6.20;2.40;;;22.50;54.10;;;;;;5108231;28;20505;-70
2022/06/03 10:24:18;;;;;;;3.38;2.00;;;22.50;54.00;;;;;;5107732;28;20047;-72
2022/06/03 10:26:49;;;;;;;3.35;2.22;;;22.60;50.20;;;;;;5108146;28;20051;-70
2022/06/03 10:29:16;;;;;;;7.80;2.30;;;22.80;55.50;;;;;;5102979;28;20070;-71
2022/06/03 10:31:47;;;;;;;3.33;2.00;;;22.70;54.20;;;;;;5087458;28;20513;-71
2022/06/03 10:34:15;;;;;;;3.78;2.00;;;22.60;50.40;;;;;;5087255;28;20098;-71
2022/06/03 10:36:44;;;;;;;3.90;2.15;;;22.80;54.20;;;;;;5091644;28;20047;-71
2022/06/03 10:39:15;;;;;;;3.30;1.90;;;22.60;50.50;;;;;;5087411;28;20054;-72
2022/06/03 10:41:43;;;;;;;3.95;2.00;;;22.60;50.60;;;;;;5092029;28;20127;-71
2022/06/03 10:44:12;;;;;;;4.70;2.40;;;22.60;50.70;;;;;;5107681;28;20054;-70
2022/06/03 10:46:38;;;;;;;5.32;2.95;;;22.60;54.30;;;;;;5106936;28;20518;-70
2022/06/03 10:49:10;;;;;;;6.57;3.58;;;22.60;55.50;;;;;;5108221;28;20079;-71
2022/06/03 11:02:39;;;;;;;6.40;2.72;;;23.20;55.20;;;;;;5095023;28;20123;-71
2022/06/03 11:05:11;;;;;;;9.43;3.00;;;22.50;50.80;;;;;;5091274;28;20072;-71
2022/06/03 11:07:38;;;;;;;8.63;3.55;;;22.60;55.70;;;;;;5109017;28;20134;-72
2022/06/03 11:10:08;;;;;;;9.30;3.50;;;22.60;50.90;;;;;;5112853;28;20136;-71
2022/06/03 11:12:35;;;;;;;7.90;3.08;;;22.70;55.70;;;;;;5111273;28;20130;-71
2022/06/03 11:15:02;;;;;;;6.60;2.95;;;22.60;51.10;;;;;;5112083;28;20051;-70
2022/06/03 11:17:35;;;;;;;7.22;2.80;;;22.60;51.10;;;;;;5096674;28;20545;-71
2022/06/03 11:20:02;;;;;;;8.55;3.22;;;22.60;55.00;;;;;;5091249;28;20093;-71
2022/06/03 11:22:30;;;;;;;6.03;3.03;;;22.50;51.00;;;;;;5092016;28;20678;-71
2022/06/03 11:25:02;;;;;;;7.47;3.08;;;22.40;54.10;;;;;;5090789;28;20054;-70
2022/06/03 11:27:35;;;;;;;6.20;3.05;;;22.60;55.70;;;;;;5106931;28;20093;-70
2022/06/03 11:30:06;;;;;;;9.02;3.78;;;22.40;54.60;;;;;;5111142;28;20051;-71
2022/06/03 11:32:33;;;;;;;50.45;16.05;;;22.50;55.40;;;;;;5111075;28;20142;-70
2022/06/03 11:35:02;;;;;;;58.85;18.33;;;22.60;54.80;;;;;;5111006;28;20083;-71
2022/06/03 11:37:31;;;;;;;120.55;33.53;;;23.30;55.80;;;;;;5095638;28;20088;-71
2022/06/03 11:39:59;;;;;;;87.90;23.73;;;22.50;51.60;;;;;;5096313;28;20056;-70
2022/06/03 11:42:31;;;;;;;50.85;14.90;;;22.40;55.30;;;;;;5111190;28;20061;-70
2022/06/03 11:45:01;;;;;;;52.05;15.90;;;22.50;51.60;;;;;;5091104;28;20135;-71
2022/06/03 11:47:30;;;;;;;42.55;13.25;;;22.50;51.60;;;;;;5111428;28;20507;-71
2022/06/03 11:49:56;;;;;;;42.63;13.90;;;22.50;51.60;;;;;;5110498;28;20143;-71
2022/06/03 11:52:23;;;;;;;49.28;18.05;;;22.50;51.60;;;;;;5112234;28;20048;-71
2022/06/03 11:54:51;;;;;;;32.35;12.45;;;22.40;53.30;;;;;;5110480;28;20154;-72
2022/06/03 11:57:18;;;;;;;35.33;12.57;;;22.60;51.20;;;;;;5107377;28;20738;-71
2022/06/03 11:59:50;;;;;;;34.00;11.20;;;22.50;55.90;;;;;;5107953;28;20039;-72
2022/06/03 12:02:18;;;;;;;30.05;10.80;;;21.30;54.80;;;;;;5108418;28;20074;-71
2022/06/03 12:04:48;;;;;;;36.28;11.27;;;22.70;53.60;;;;;;5109733;28;20494;-71
2022/06/03 12:07:29;;;;;;;30.08;10.93;;;22.70;55.50;;;;;;5109825;28;20051;-71
2022/06/03 12:09:58;;;;;;;26.98;9.57;;;22.40;55.90;;;;;;5110322;28;20058;-72
2022/06/03 12:15:28;;;;;;;;;;;22.40;51.60;;;;;;5110801;28;20078;-71
2022/06/03 12:17:58;;;;;;;25.33;8.45;;;22.30;55.90;;;;;;5111944;28;19963;-70
2022/06/03 12:20:36;;;;;;;24.05;8.50;;;22.60;56.50;;;;;;5110376;28;20109;-70
2022/06/03 12:23:36;;;;;;;23.65;8.07;;;22.40;51.90;;;;;;5110040;28;20134;-71
2022/06/03 12:26:07;;;;;;;21.50;8.00;;;22.50;55.50;;;;;;5092449;28;20138;-71
2022/06/03 12:28:42;;;;;;;22.23;8.55;;;22.40;52.10;;;;;;5096835;28;20057;-71
2022/06/03 12:31:12;;;;;;;18.17;7.53;;;22.30;56.00;;;;;;5110211;28;20051;-71
2022/06/03 12:33:45;;;;;;;20.00;7.30;;;23.20;55.90;;;;;;5110386;28;20047;-71
2022/06/03 12:36:38;;;;;;;19.48;7.80;;;22.40;52.00;;;;;;5089960;28;20051;-71
2022/06/03 12:39:36;;;;;;;18.40;7.07;;;22.40;52.00;;;;;;5092105;28;20426;-71
2022/06/03 12:42:13;;;;;;;18.48;6.60;;;22.20;56.00;;;;;;5095188;28;20087;-72
2022/06/03 12:44:46;;;;;;;17.92;6.78;;;22.30;51.60;;;;;;5090660;28;20047;-72
2022/06/03 12:47:50;;;;;;;14.80;6.18;;;22.10;56.40;;;;;;5089810;28;20056;-72
2022/06/03 12:50:40;;;;;;;16.05;6.43;;;22.30;52.20;;;;;;5089496;28;20060;-71
2022/06/03 12:53:35;;;;;;;17.10;6.75;;;22.30;52.20;;;;;;5086265;28;20498;-72
2022/06/03 12:56:02;;;;;;;16.20;6.63;;;22.20;51.60;;;;;;5045235;28;20542;-71
2022/06/03 12:58:38;;;;;;;13.73;5.82;;;22.30;52.20;;;;;;5089404;28;20057;-71
2022/06/03 13:01:05;;;;;;;15.18;6.00;;;22.30;52.20;;;;;;5089427;28;20409;-71
2022/06/03 13:03:40;;;;;;;12.30;5.55;;;23.30;56.40;;;;;;5108747;28;20047;-71
2022/06/03 13:06:09;;;;;;;16.38;5.72;;;22.70;52.50;;;;;;5108617;28;20498;-71
2022/06/03 13:11:33;;;;;;;11.45;5.85;;;22.30;56.70;;;;;;5108451;28;20043;-71
2022/06/03 13:14:18;;;;;;;11.95;5.32;;;22.20;52.30;;;;;;5108654;28;20047;-72
2022/06/03 13:16:47;;;;;;;13.05;6.03;;;22.30;56.80;;;;;;5089033;28;20090;-71
2022/06/03 13:19:40;;;;;;;13.93;5.50;;;22.20;56.10;;;;;;5087861;28;20135;-71
2022/06/03 13:22:09;;;;;;;13.38;5.38;;;22.20;52.30;;;;;;5088619;28;20051;-71
2022/06/03 13:24:36;;;;;;;12.32;5.20;;;22.20;52.30;;;;;;5094268;28;20469;-70
2022/06/03 13:27:15;;;;;;;12.60;4.60;;;22.10;55.50;;;;;;5109136;28;20485;-70
2022/06/03 13:30:14;;;;;;;26.80;7.30;;;22.30;52.50;;;;;;5108753;28;20058;-71
2022/06/03 13:32:59;;;;;;;22.73;7.05;;;22.20;52.40;;;;;;5096175;28;20047;-71
2022/06/03 13:35:27;;;;;;;;;;;22.30;52.50;;;;;;5108246;28;20323;-72
2022/06/03 13:38:38;;;;;;;21.95;6.57;;;22.20;52.50;;;;;;5108848;28;19920;-71
2022/06/03 13:44:08;;;;;;;23.38;7.22;;;22.20;52.70;;;;;;5088348;28;20044;-71
2022/06/03 13:46:35;;;;;;;16.08;6.53;;;22.20;52.70;;;;;;5088388;28;20410;-72
2022/06/03 13:49:03;;;;;;;23.25;6.63;;;22.20;52.80;;;;;;5094021;28;20055;-71
2022/06/03 13:51:49;;;;;;;21.00;5.53;;;22.10;56.90;;;;;;5108896;28;20055;-71
2022/06/03 13:54:21;;;;;;;15.55;6.25;;;22.20;52.80;;;;;;5108598;28;20425;-71
2022/06/03 13:56:59;;;;;;;14.68;5.78;;;22.20;57.70;;;;;;5108427;28;20044;-71
2022/06/03 13:59:26;;;;;;;13.55;4.57;;;22.20;52.80;;;;;;5108653;28;20411;-71
2022/06/03 14:01:53;;;;;;;14.35;4.47;;;22.20;52.60;;;;;;5100447;28;20062;-71
2022/06/03 14:04:22;;;;;;;13.27;4.82;;;22.60;56.80;;;;;;5087797;28;20351;-71
2022/06/03 14:06:55;;;;;;;12.77;5.13;;;22.20;52.70;;;;;;5088365;28;20159;-71
2022/06/03 14:09:27;;;;;;;13.15;4.40;;;22.20;57.50;;;;;;5106339;28;20499;-71
2022/06/03 14:11:56;;;;;;;13.07;4.80;;;22.20;52.90;;;;;;5108123;28;20051;-71
2022/06/03 14:14:24;;;;;;;11.90;4.35;;;22.10;56.10;;;;;;5109330;28;20046;-71
2022/06/03 14:16:53;;;;;;;12.18;4.65;;;22.20;52.90;;;;;;5107928;28;20573;-71
2022/06/03 14:19:41;;;;;;;12.30;4.47;;;22.20;52.90;;;;;;5096183;28;20424;-71
2022/06/03 14:22:13;;;;;;;12.48;4.47;;;22.10;56.30;;;;;;5083960;28;20056;-71
2022/06/03 14:24:42;;;;;;;14.35;4.80;;;21.70;56.10;;;;;;5087744;28;20668;-71